Time;durP1;ratioP1;P1;durP2;ratioP2;P2;SDS_P1;SDS_P2;PMS_P1;PMS_P2;Temp;Humidity;BMP_temperature;BMP_pressure;BME280_temperature;BME280_humidity;BME280_pressure;Samples;Min_cycle;Max_cycle;Signal;HPM_P1;HPM_P2
2024/02/04 06:01:00;;;;;;;1.85;0.80;;;7.70;82.50;;;;;;4601641;23;20295;-79
2024/02/04 06:03:02;;;;;;;2.25;1.10;;;7.70;82.70;;;;;;4083965;29;20430;-78
2024/02/04 06:05:03;;;;;;;2.17;0.93;;;7.70;82.70;;;;;;4083961;29;20543;-80
2024/02/04 06:07:05;;;;;;;2.53;0.85;;;7.70;82.70;;;;;;4084090;29;20048;-79
2024/02/04 06:09:08;;;;;;;2.33;0.80;;;7.70;82.90;;;;;;4084161;29;20047;-81
2024/02/04 06:11:11;;;;;;;2.28;0.90;;;7.70;82.70;;;;;;4084185;29;20058;-80
2024/02/04 06:13:15;;;;;;;1.98;0.80;;;7.70;82.80;;;;;;4084178;29;20142;-80
2024/02/04 06:15:17;;;;;;;3.28;1.02;;;7.70;82.80;;;;;;4085112;29;20268;-80
2024/02/04 06:17:21;;;;;;;2.78;0.73;;;7.70;82.60;;;;;;4084744;29;20497;-80
2024/02/04 06:19:23;;;;;;;2.60;1.10;;;7.80;82.50;;;;;;4078768;29;20135;-77
2024/02/04 06:21:25;;;;;;;2.00;0.90;;;7.70;82.50;;;;;;4086661;29;20075;-78
2024/02/04 06:23:28;;;;;;;2.08;0.90;;;7.70;82.60;;;;;;4085825;29;20497;-78
2024/02/04 06:25:33;;;;;;;1.90;0.80;;;7.70;82.50;;;;;;4085989;29;20138;-78
2024/02/04 06:27:35;;;;;;;2.10;0.85;;;7.70;82.40;;;;;;4085551;29;20047;-78
2024/02/04 06:29:39;;;;;;;1.80;0.80;;;7.70;82.40;;;;;;4087073;29;20048;-79
2024/02/04 06:31:45;;;;;;;3.13;0.80;;;7.70;82.50;;;;;;4086960;29;20405;-78
2024/02/04 06:33:48;;;;;;;1.75;0.70;;;7.70;82.30;;;;;;4086727;29;20052;-80
2024/02/04 06:35:50;;;;;;;2.40;1.00;;;7.70;82.40;;;;;;4077194;29;20051;-77
2024/02/04 06:37:52;;;;;;;2.22;0.90;;;7.70;82.60;;;;;;4084768;29;20070;-80
2024/02/04 06:39:53;;;;;;;1.75;0.70;;;7.80;82.80;;;;;;4084519;29;20048;-79
2024/02/04 06:41:55;;;;;;;2.17;0.90;;;7.80;82.60;;;;;;4086744;29;20044;-78
2024/02/04 06:43:57;;;;;;;2.00;0.90;;;7.70;82.40;;;;;;4086670;29;20051;-79
2024/02/04 06:45:59;;;;;;;1.90;0.77;;;7.80;82.50;;;;;;4086258;29;20099;-78
2024/02/04 06:48:01;;;;;;;1.75;0.80;;;7.80;82.40;;;;;;4086758;29;20386;-79
2024/02/04 06:50:05;;;;;;;3.20;0.80;;;7.80;82.40;;;;;;4081186;29;20076;-80
2024/02/04 06:52:07;;;;;;;2.28;0.90;;;7.80;82.40;;;;;;4077794;29;20169;-80
2024/02/04 06:54:10;;;;;;;1.90;0.73;;;7.70;82.50;;;;;;4086217;29;20051;-79
2024/02/04 06:56:12;;;;;;;1.67;0.75;;;7.70;82.60;;;;;;4086639;29;20453;-79
2024/02/04 06:58:14;;;;;;;1.50;0.70;;;7.80;82.60;;;;;;4086742;29;20051;-77
2024/02/04 07:00:17;;;;;;;2.75;0.88;;;7.70;83.30;;;;;;4086437;29;20135;-78
2024/02/04 07:02:19;;;;;;;1.80;0.80;;;7.70;82.60;;;;;;4086762;29;20469;-77
2024/02/04 07:04:23;;;;;;;2.67;0.88;;;7.70;82.50;;;;;;4087105;29;20126;-78
2024/02/04 07:06:27;;;;;;;2.00;0.80;;;7.70;82.40;;;;;;4088216;29;20405;-76
2024/02/04 07:08:29;;;;;;;3.58;1.10;;;7.70;82.50;;;;;;4082917;29;20104;-76
2024/02/04 07:10:31;;;;;;;2.03;0.90;;;7.70;82.70;;;;;;4078221;29;20135;-76
2024/02/04 07:12:33;;;;;;;1.60;0.80;;;7.70;82.60;;;;;;4077411;29;20135;-76
2024/02/04 07:14:35;;;;;;;2.42;0.80;;;7.70;82.60;;;;;;4077954;29;20066;-76
2024/02/04 07:16:37;;;;;;;2.00;0.90;;;7.70;82.60;;;;;;4070955;29;20139;-78
2024/02/04 07:18:38;;;;;;;1.83;0.82;;;7.70;82.60;;;;;;4079314;29;20457;-75
2024/02/04 07:20:41;;;;;;;2.22;0.90;;;7.80;82.60;;;;;;4086204;29;20051;-75
2024/02/04 07:22:43;;;;;;;2.22;0.80;;;7.80;82.60;;;;;;4086441;29;20086;-75
2024/02/04 07:24:45;;;;;;;2.92;0.90;;;7.70;82.60;;;;;;4086310;29;20126;-77
2024/02/04 07:26:47;;;;;;;2.78;0.90;;;7.70;82.70;;;;;;4085816;29;20047;-77
2024/02/04 07:28:49;;;;;;;2.10;0.90;;;7.80;82.70;;;;;;4070097;29;20454;-75
2024/02/04 07:30:51;;;;;;;1.88;0.80;;;7.80;83.40;;;;;;4075507;29;20139;-77
2024/02/04 07:32:53;;;;;;;2.60;0.80;;;7.80;82.70;;;;;;4085733;29;20043;-78
2024/02/04 07:34:55;;;;;;;1.67;0.70;;;7.80;82.70;;;;;;4085246;29;20052;-73
2024/02/04 07:36:57;;;;;;;1.88;0.70;;;7.80;82.70;;;;;;4082778;29;20091;-76
2024/02/04 07:39:02;;;;;;;2.15;0.85;;;7.80;82.80;;;;;;4079517;29;20043;-77
2024/02/04 07:41:04;;;;;;;3.30;1.40;;;7.80;82.40;;;;;;4084673;29;20051;-75
2024/02/04 07:43:06;;;;;;;2.03;0.80;;;7.80;82.30;;;;;;4085589;29;20074;-74
2024/02/04 07:45:10;;;;;;;2.80;0.77;;;7.80;82.20;;;;;;4085731;29;20433;-79
2024/02/04 07:47:12;;;;;;;1.73;0.80;;;7.80;82.30;;;;;;4085803;29;20389;-80
2024/02/04 07:49:14;;;;;;;1.95;0.80;;;7.80;82.10;;;;;;4085291;29;20095;-78
2024/02/04 07:51:16;;;;;;;1.70;0.70;;;7.90;82.00;;;;;;4085587;29;20059;-78
2024/02/04 07:53:17;;;;;;;1.50;0.70;;;7.90;81.90;;;;;;4082578;29;20059;-77
2024/02/04 07:55:20;;;;;;;1.83;0.80;;;8.00;82.30;;;;;;4077980;29;20111;-77
2024/02/04 07:57:21;;;;;;;2.88;0.82;;;7.90;81.60;;;;;;4080372;29;20044;-78
2024/02/04 07:59:23;;;;;;;2.33;0.70;;;8.00;81.50;;;;;;4085192;29;20404;-78
2024/02/04 08:01:25;;;;;;;3.47;1.00;;;8.00;81.50;;;;;;4084867;29;20524;-80
2024/02/04 08:03:27;;;;;;;3.03;0.98;;;8.00;81.40;;;;;;4085477;29;20059;-78
2024/02/04 08:05:28;;;;;;;3.17;0.90;;;8.00;81.40;;;;;;4085267;29;20051;-76
2024/02/04 08:07:31;;;;;;;3.55;1.05;;;8.00;81.40;;;;;;4085552;29;20587;-77
2024/02/04 08:09:33;;;;;;;2.83;0.90;;;8.00;81.20;;;;;;4085700;29;20118;-76
2024/02/04 08:11:36;;;;;;;2.75;1.00;;;8.10;81.00;;;;;;4084871;29;20048;-77
2024/02/04 08:13:38;;;;;;;3.28;1.15;;;8.10;80.80;;;;;;4085723;29;20055;-76
2024/02/04 08:15:40;;;;;;;4.57;1.25;;;8.10;80.80;;;;;;4074751;29;20056;-76
2024/02/04 08:17:42;;;;;;;2.08;0.80;;;8.10;80.70;;;;;;4070487;29;20160;-76
2024/02/04 08:19:43;;;;;;;2.50;1.02;;;8.10;80.60;;;;;;4074776;29;20048;-77
2024/02/04 08:21:45;;;;;;;2.42;0.90;;;8.10;80.60;;;;;;4077214;29;20428;-77
2024/02/04 08:23:46;;;;;;;3.28;0.90;;;8.10;80.60;;;;;;4084907;29;20043;-75
2024/02/04 08:25:49;;;;;;;3.13;1.20;;;8.10;80.50;;;;;;4084197;29;20098;-77
2024/02/04 08:27:53;;;;;;;3.10;1.08;;;8.20;80.50;;;;;;4084610;29;20051;-77
2024/02/04 08:29:55;;;;;;;3.35;1.02;;;8.10;80.50;;;;;;4084679;29;20277;-77
2024/02/04 08:31:57;;;;;;;3.78;1.33;;;8.10;81.30;;;;;;4084518;29;20135;-76
2024/02/04 08:33:59;;;;;;;3.85;1.30;;;8.10;80.40;;;;;;4084439;29;20056;-78
2024/02/04 08:36:01;;;;;;;3.20;1.00;;;8.20;80.60;;;;;;4077132;29;20047;-78
2024/02/04 08:38:03;;;;;;;2.10;0.90;;;8.20;80.50;;;;;;4085741;29;20054;-78
2024/02/04 08:40:08;;;;;;;1.88;0.80;;;8.20;80.50;;;;;;4084745;29;20051;-77
2024/02/04 08:42:10;;;;;;;2.60;1.00;;;8.20;80.40;;;;;;4080180;29;20066;-75
2024/02/04 08:44:13;;;;;;;2.97;1.00;;;8.30;80.20;;;;;;4083747;29;20461;-79
2024/02/04 08:46:14;;;;;;;2.70;0.88;;;8.30;80.10;;;;;;4084306;29;20043;-76
2024/02/04 08:48:16;;;;;;;2.38;0.90;;;8.30;80.00;;;;;;4084637;29;20515;-80
2024/02/04 08:50:17;;;;;;;2.45;1.00;;;8.40;79.80;;;;;;4083213;29;20058;-78
2024/02/04 08:52:19;;;;;;;3.65;1.00;;;8.40;79.70;;;;;;4085487;29;20048;-75
2024/02/04 08:54:20;;;;;;;2.25;0.90;;;8.40;79.80;;;;;;4084974;29;20640;-76
2024/02/04 08:56:22;;;;;;;3.20;1.00;;;8.40;79.60;;;;;;4085206;29;20044;-77
2024/02/04 08:58:24;;;;;;;3.25;1.08;;;8.50;79.70;;;;;;4074169;29;20502;-77
2024/02/04 09:00:27;;;;;;;3.10;0.98;;;8.50;79.40;;;;;;4081630;29;20055;-77
2024/02/04 09:02:29;;;;;;;2.03;0.75;;;8.60;79.20;;;;;;4085373;29;20089;-78
2024/02/04 09:04:31;;;;;;;3.00;1.00;;;8.60;79.00;;;;;;4084560;29;20505;-78
2024/02/04 09:06:33;;;;;;;3.20;0.93;;;8.60;79.00;;;;;;4084429;29;20083;-78
2024/02/04 09:08:34;;;;;;;3.05;0.90;;;8.60;79.30;;;;;;4084520;29;20043;-78
2024/02/04 09:10:36;;;;;;;1.55;0.70;;;8.70;79.00;;;;;;4084532;29;20556;-80
2024/02/04 09:12:37;;;;;;;1.63;0.80;;;8.70;78.90;;;;;;4084560;29;20044;-77
2024/02/04 09:14:38;;;;;;;2.25;0.93;;;8.70;78.80;;;;;;4085076;29;20059;-77
2024/02/04 09:16:42;;;;;;;1.83;0.70;;;8.80;78.70;;;;;;4085316;29;20458;-78
2024/02/04 09:18:45;;;;;;;1.77;0.75;;;8.80;78.20;;;;;;4084224;29;20052;-76
2024/02/04 09:20:48;;;;;;;2.60;1.00;;;8.80;78.30;;;;;;4084448;29;20052;-76
2024/02/04 09:22:50;;;;;;;1.52;0.75;;;8.80;78.40;;;;;;4084292;29;20050;-76
2024/02/04 09:24:51;;;;;;;3.92;0.95;;;8.80;78.40;;;;;;4084056;29;20545;-79
2024/02/04 09:26:53;;;;;;;2.58;0.98;;;8.90;78.40;;;;;;4076886;29;20052;-77
2024/02/04 09:28:55;;;;;;;2.15;0.85;;;8.90;78.30;;;;;;4081886;29;20047;-77
2024/02/04 09:30:56;;;;;;;1.88;0.80;;;8.80;78.20;;;;;;4084900;29;20052;-78
2024/02/04 09:33:00;;;;;;;4.15;1.00;;;8.80;78.20;;;;;;4084422;29;20048;-79
2024/02/04 09:35:02;;;;;;;2.78;0.98;;;8.90;78.50;;;;;;4085707;29;20055;-78
2024/02/04 09:37:04;;;;;;;2.50;0.93;;;9.00;79.00;;;;;;4076586;29;20043;-77
2024/02/04 09:39:06;;;;;;;3.00;1.00;;;8.90;78.00;;;;;;4081636;29;20453;-78
2024/02/04 09:41:08;;;;;;;2.15;0.85;;;8.90;78.10;;;;;;4082425;29;20051;-79
2024/02/04 09:43:11;;;;;;;1.90;0.80;;;9.00;78.40;;;;;;4076107;29;20107;-79
2024/02/04 09:45:15;;;;;;;2.42;0.90;;;9.00;78.90;;;;;;4084577;29;20052;-78
2024/02/04 09:47:17;;;;;;;2.78;1.00;;;9.00;78.20;;;;;;4084298;29;20052;-78
2024/02/04 09:49:22;;;;;;;2.65;0.90;;;9.00;78.30;;;;;;4078878;29;20052;-78
2024/02/04 09:51:26;;;;;;;2.70;0.90;;;9.00;78.10;;;;;;4083904;29;20147;-80
2024/02/04 09:53:35;;;;;;;3.22;0.90;;;9.00;78.20;;;;;;4084621;29;20059;-79
2024/02/04 09:55:39;;;;;;;1.50;0.60;;;9.20;78.20;;;;;;4080841;29;20073;-77
2024/02/04 09:57:41;;;;;;;2.22;0.73;;;9.10;78.20;;;;;;4081989;29;20569;-78
2024/02/04 09:59:44;;;;;;;2.63;0.80;;;9.10;78.00;;;;;;4084574;29;20485;-76
2024/02/04 10:01:47;;;;;;;3.42;0.75;;;9.10;77.90;;;;;;4085069;29;20060;-79
2024/02/04 10:03:49;;;;;;;2.78;0.90;;;9.20;77.90;;;;;;4087132;29;20047;-80
2024/02/04 10:05:53;;;;;;;2.53;0.65;;;9.20;77.70;;;;;;4086555;29;20043;-78
2024/02/04 10:07:54;;;;;;;1.58;0.57;;;9.10;77.80;;;;;;4084219;29;20482;-81
2024/02/04 10:09:56;;;;;;;2.58;0.60;;;9.00;78.10;;;;;;4083872;29;20044;-78
2024/02/04 10:11:58;;;;;;;2.33;0.70;;;9.00;78.30;;;;;;4077254;29;20060;-78
2024/02/04 10:14:01;;;;;;;2.03;0.63;;;9.10;78.20;;;;;;4084438;29;20043;-80
2024/02/04 10:16:03;;;;;;;1.77;0.57;;;9.10;77.80;;;;;;4087538;29;20055;-81
2024/02/04 10:18:07;;;;;;;1.67;0.80;;;9.20;77.80;;;;;;4087268;29;20482;-78
2024/02/04 10:20:11;;;;;;;1.83;0.73;;;9.20;77.70;;;;;;4087565;29;20052;-81
2024/02/04 10:22:16;;;;;;;2.80;0.65;;;9.30;77.60;;;;;;4087585;29;20464;-80
2024/02/04 10:24:17;;;;;;;1.98;0.60;;;9.30;77.30;;;;;;4086974;29;20044;-80
2024/02/04 10:26:21;;;;;;;1.75;0.60;;;9.30;77.50;;;;;;4084047;29;20499;-78
2024/02/04 10:28:23;;;;;;;0.82;0.45;;;9.40;77.40;;;;;;4089047;29;20051;-78
2024/02/04 10:30:25;;;;;;;1.52;0.35;;;9.40;77.00;;;;;;4077364;29;20063;-78
2024/02/04 10:32:27;;;;;;;2.40;0.50;;;9.30;77.10;;;;;;4081498;29;20056;-80
2024/02/04 10:34:29;;;;;;;1.50;0.60;;;9.30;77.20;;;;;;4087320;29;20054;-80
2024/02/04 10:36:31;;;;;;;0.95;0.40;;;9.30;77.40;;;;;;4080544;29;20047;-78
2024/02/04 10:38:35;;;;;;;1.67;0.70;;;9.30;77.60;;;;;;4085577;29;20424;-78
2024/02/04 10:40:36;;;;;;;2.30;0.52;;;9.40;77.30;;;;;;4081451;29;20064;-79
2024/02/04 10:42:38;;;;;;;1.30;0.52;;;9.40;77.30;;;;;;4078733;29;20059;-79
2024/02/04 10:44:43;;;;;;;2.75;0.80;;;9.40;77.10;;;;;;4084270;29;20473;-77
2024/02/04 10:46:48;;;;;;;1.27;0.50;;;9.50;77.00;;;;;;4085966;29;20088;-77
2024/02/04 10:48:56;;;;;;;1.20;0.40;;;9.70;76.80;;;;;;4085210;29;20044;-79
2024/02/04 10:51:00;;;;;;;1.15;0.50;;;9.70;76.40;;;;;;4086800;29;20122;-78
2024/02/04 10:53:07;;;;;;;1.52;0.40;;;9.80;76.00;;;;;;4087439;29;20053;-78
2024/02/04 10:55:13;;;;;;;0.68;0.35;;;9.90;75.30;;;;;;4083316;29;20058;-77
2024/02/04 10:57:18;;;;;;;1.30;0.50;;;9.90;75.20;;;;;;4084672;29;20062;-79
2024/02/04 10:59:21;;;;;;;1.30;0.40;;;9.90;75.40;;;;;;4075824;29;20060;-80
2024/02/04 11:01:23;;;;;;;1.48;0.40;;;10.00;74.70;;;;;;4084495;29;20064;-79
2024/02/04 11:03:27;;;;;;;1.88;0.60;;;10.10;74.60;;;;;;4083888;29;20441;-77
2024/02/04 11:05:31;;;;;;;1.50;0.45;;;10.20;74.30;;;;;;4085280;29;20474;-77
2024/02/04 11:07:34;;;;;;;1.50;0.57;;;10.20;73.40;;;;;;4084862;29;20051;-80
2024/02/04 11:09:37;;;;;;;1.50;0.73;;;10.10;73.60;;;;;;4082874;29;20087;-79
2024/02/04 11:11:42;;;;;;;1.23;0.50;;;10.10;73.00;;;;;;4082165;29;20063;-79
2024/02/04 11:13:47;;;;;;;1.97;0.60;;;10.00;73.20;;;;;;4084215;29;20134;-77
2024/02/04 11:15:50;;;;;;;2.55;0.50;;;9.90;74.20;;;;;;4085805;29;20959;-77
2024/02/04 11:18:13;;;;;;;2.10;0.68;;;10.00;74.70;;;;;;4069956;29;20121;-82
2024/02/04 11:20:34;;;;;;;1.23;0.50;;;10.00;74.30;;;;;;4084399;29;20087;-77
2024/02/04 11:23:01;;;;;;;2.13;0.60;;;10.00;74.30;;;;;;4076826;29;20063;-83
2024/02/04 11:25:33;;;;;;;2.58;0.50;;;10.10;74.10;;;;;;4071042;29;20040;-79
2024/02/04 11:27:36;;;;;;;0.77;0.40;;;9.90;74.20;;;;;;4075845;29;20048;-80
2024/02/04 11:29:39;;;;;;;1.48;0.45;;;9.90;74.60;;;;;;4068964;29;20394;-78
2024/02/04 11:31:41;;;;;;;1.55;0.70;;;10.00;74.90;;;;;;4077930;29;20127;-76
2024/02/04 11:33:43;;;;;;;1.58;0.55;;;10.20;74.20;;;;;;4084686;29;20051;-77
2024/02/04 11:35:45;;;;;;;1.27;0.45;;;10.40;74.10;;;;;;4078321;29;20590;-78
2024/02/04 11:37:47;;;;;;;1.20;0.47;;;10.50;73.00;;;;;;4083788;29;20110;-77
2024/02/04 11:39:51;;;;;;;2.20;0.60;;;10.50;73.00;;;;;;4083547;29;20051;-77
2024/02/04 11:41:53;;;;;;;1.85;0.70;;;10.40;73.30;;;;;;4083806;29;20111;-77
2024/02/04 11:43:59;;;;;;;4.90;2.08;;;10.30;73.30;;;;;;4084120;29;20044;-79
2024/02/04 11:46:01;;;;;;;;;;;10.40;73.30;;;;;;4085311;29;20099;-75
2024/02/04 11:48:02;;;;;;;1.02;0.40;;;10.40;73.70;;;;;;4083700;29;19974;-77
2024/02/04 11:50:05;;;;;;;0.98;0.40;;;10.50;73.40;;;;;;4084091;29;20054;-76
2024/02/04 11:52:08;;;;;;;0.82;0.38;;;10.60;72.70;;;;;;4083960;29;20063;-77
2024/02/04 11:54:11;;;;;;;1.50;0.60;;;10.80;72.10;;;;;;4075956;29;20051;-77
2024/02/04 11:56:14;;;;;;;1.30;0.50;;;10.80;71.70;;;;;;4084428;29;20083;-79
2024/02/04 11:58:15;;;;;;;1.92;0.60;;;10.90;71.50;;;;;;4083932;29;20051;-77
2024/02/04 12:00:19;;;;;;;1.25;0.47;;;11.00;71.50;;;;;;4092342;29;20047;-75
2024/02/04 12:02:21;;;;;;;2.45;0.50;;;11.10;71.00;;;;;;4085235;29;20695;-77
2024/02/04 12:04:24;;;;;;;1.42;0.40;;;11.30;70.80;;;;;;4084858;29;20051;-77
2024/02/04 12:06:26;;;;;;;2.53;0.52;;;11.40;70.40;;;;;;4081993;29;20541;-77
2024/02/04 12:08:30;;;;;;;2.42;0.57;;;11.30;70.30;;;;;;4085405;29;20114;-79
2024/02/04 12:10:33;;;;;;;1.85;0.40;;;11.10;70.90;;;;;;4084949;29;20052;-77
2024/02/04 12:12:35;;;;;;;1.08;0.38;;;11.10;71.10;;;;;;4078507;29;20062;-75
2024/02/04 12:14:37;;;;;;;0.65;0.20;;;11.00;71.20;;;;;;4078158;29;20047;-77
2024/02/04 12:16:42;;;;;;;1.20;0.50;;;11.00;71.50;;;;;;4081150;29;20056;-75
2024/02/04 12:18:50;;;;;;;2.22;0.50;;;11.10;71.50;;;;;;4080678;29;20051;-80
2024/02/04 12:20:52;;;;;;;1.40;0.40;;;11.10;71.40;;;;;;4081879;29;20119;-79
2024/02/04 12:22:54;;;;;;;6.93;3.72;;;11.10;71.10;;;;;;4082605;29;20064;-80
2024/02/04 12:24:57;;;;;;;2.05;0.60;;;11.10;71.00;;;;;;4082966;29;20048;-82
2024/02/04 12:26:59;;;;;;;1.65;0.47;;;11.20;70.70;;;;;;4083413;29;20047;-84
2024/02/04 12:29:02;;;;;;;1.40;0.50;;;11.10;70.90;;;;;;4087551;29;20050;-80
2024/02/04 12:31:05;;;;;;;2.83;0.70;;;11.10;70.70;;;;;;4090154;29;20067;-80
2024/02/04 12:33:08;;;;;;;0.93;0.40;;;11.20;70.70;;;;;;4085175;29;20545;-82
2024/02/04 12:35:15;;;;;;;2.95;0.55;;;11.20;70.40;;;;;;4083206;29;20162;-80
2024/02/04 12:37:17;;;;;;;0.93;0.50;;;11.20;70.80;;;;;;4083318;29;20070;-79
2024/02/04 12:39:19;;;;;;;1.80;0.57;;;11.10;71.10;;;;;;4082460;29;20083;-78
2024/02/04 12:41:20;;;;;;;1.40;0.40;;;11.00;71.40;;;;;;4081778;29;20062;-78
2024/02/04 12:43:22;;;;;;;1.75;0.50;;;11.00;71.70;;;;;;4082098;29;20054;-77
2024/02/04 12:45:24;;;;;;;1.08;0.43;;;11.10;71.80;;;;;;4082340;29;20082;-79
2024/02/04 12:47:28;;;;;;;0.88;0.40;;;11.10;71.70;;;;;;4082918;29;20118;-76
2024/02/04 12:49:31;;;;;;;1.15;0.50;;;11.20;71.30;;;;;;4083055;29;20047;-76
2024/02/04 12:51:34;;;;;;;3.38;0.40;;;11.20;71.00;;;;;;4078454;29;20171;-76
2024/02/04 12:53:36;;;;;;;1.48;0.50;;;11.20;71.40;;;;;;4081087;29;20111;-75
2024/02/04 12:55:38;;;;;;;2.75;0.50;;;11.40;71.10;;;;;;4082466;29;20059;-77
2024/02/04 12:57:40;;;;;;;1.23;0.40;;;11.30;71.10;;;;;;4082085;29;20109;-79
2024/02/04 12:59:42;;;;;;;1.65;0.45;;;11.30;71.90;;;;;;4075769;29;20466;-77
2024/02/04 13:01:44;;;;;;;1.83;0.57;;;11.20;71.30;;;;;;4080443;29;20141;-75
2024/02/04 13:03:50;;;;;;;1.65;0.57;;;11.30;71.50;;;;;;4082518;29;20716;-75
2024/02/04 13:05:58;;;;;;;;;;;11.40;71.10;;;;;;4082611;29;20638;-78
2024/02/04 13:08:02;;;;;;;2.00;0.63;;;11.30;71.20;;;;;;4081670;29;19982;-78
2024/02/04 13:10:05;;;;;;;1.85;0.80;;;11.40;71.10;;;;;;4082165;29;20524;-76
2024/02/04 13:12:10;;;;;;;1.33;0.52;;;11.50;70.60;;;;;;4079788;29;20071;-79
2024/02/04 13:14:11;;;;;;;2.83;0.80;;;11.60;70.40;;;;;;4082764;29;20494;-79
2024/02/04 13:16:12;;;;;;;2.13;0.80;;;11.80;69.80;;;;;;4082586;29;20095;-80
2024/02/04 13:18:15;;;;;;;4.72;0.90;;;12.20;68.40;;;;;;4077169;29;20054;-78
2024/02/04 13:20:17;;;;;;;3.55;0.70;;;12.30;67.80;;;;;;4080757;29;20051;-77
2024/02/04 13:22:20;;;;;;;3.38;0.55;;;12.40;67.20;;;;;;4081610;29;20056;-78
2024/02/04 13:24:22;;;;;;;1.25;0.50;;;12.30;67.10;;;;;;4081764;29;20083;-79
2024/02/04 13:26:24;;;;;;;1.30;0.50;;;12.30;67.40;;;;;;4081840;29;20461;-79
2024/02/04 13:28:26;;;;;;;1.20;0.43;;;12.30;67.50;;;;;;4080921;29;20143;-78
2024/02/04 13:30:28;;;;;;;1.10;0.35;;;12.20;67.30;;;;;;4081759;29;20564;-82
2024/02/04 13:32:29;;;;;;;1.25;0.60;;;12.10;67.90;;;;;;4082411;29;20055;-79
2024/02/04 13:34:31;;;;;;;2.03;0.60;;;12.00;68.00;;;;;;4082917;29;20124;-81
2024/02/04 13:36:33;;;;;;;0.75;0.30;;;12.10;68.10;;;;;;4082316;29;20052;-81
2024/02/04 13:38:37;;;;;;;1.27;0.50;;;12.10;67.70;;;;;;4083789;29;20055;-79
2024/02/04 13:40:40;;;;;;;1.13;0.40;;;12.20;67.90;;;;;;4084928;29;20350;-78
2024/02/04 13:42:42;;;;;;;2.75;0.80;;;12.20;67.80;;;;;;4085279;29;20055;-80
2024/02/04 13:44:44;;;;;;;3.30;0.77;;;12.30;67.80;;;;;;4085853;29;20119;-80
2024/02/04 13:46:45;;;;;;;1.67;0.70;;;12.20;67.90;;;;;;4085590;29;20098;-78
2024/02/04 13:48:47;;;;;;;2.10;1.00;;;12.10;68.00;;;;;;4085481;29;20116;-81
2024/02/04 13:50:49;;;;;;;2.33;0.60;;;12.10;68.50;;;;;;4086282;29;20122;-80
2024/02/04 13:52:51;;;;;;;1.92;0.52;;;11.90;69.10;;;;;;4085474;29;20501;-80
2024/02/04 13:54:53;;;;;;;1.55;0.70;;;11.90;69.30;;;;;;4084445;29;20051;-80
2024/02/04 13:56:55;;;;;;;2.22;0.90;;;11.90;69.40;;;;;;4084860;29;20103;-78
2024/02/04 13:58:57;;;;;;;2.25;0.77;;;11.80;69.40;;;;;;4084595;29;20051;-81
2024/02/04 14:00:59;;;;;;;2.90;1.08;;;11.90;69.80;;;;;;4085488;29;20111;-76
2024/02/04 14:03:00;;;;;;;3.00;1.10;;;11.90;69.70;;;;;;4083948;29;20059;-77
2024/02/04 14:05:03;;;;;;;1.95;0.63;;;11.80;70.00;;;;;;4079933;29;20404;-80
2024/02/04 14:07:04;;;;;;;1.42;0.60;;;11.80;70.40;;;;;;4084367;29;20075;-81
2024/02/04 14:09:06;;;;;;;1.48;0.50;;;11.90;70.20;;;;;;4084631;29;20099;-79
2024/02/04 14:11:09;;;;;;;1.30;0.50;;;11.70;70.20;;;;;;4084577;29;20134;-80
2024/02/04 14:13:12;;;;;;;2.50;0.60;;;11.80;70.40;;;;;;4083526;29;20055;-79
2024/02/04 14:15:14;;;;;;;1.13;0.47;;;11.70;70.60;;;;;;4082987;29;20461;-80
2024/02/04 14:17:15;;;;;;;1.13;0.40;;;11.80;70.60;;;;;;4084579;29;20059;-79
2024/02/04 14:19:17;;;;;;;1.50;0.43;;;11.70;70.50;;;;;;4083867;29;20531;-79
2024/02/04 14:21:19;;;;;;;1.77;0.63;;;11.70;70.90;;;;;;4084591;29;20499;-79
2024/02/04 14:23:21;;;;;;;1.15;0.50;;;11.80;70.70;;;;;;4084517;29;20121;-76
2024/02/04 14:25:24;;;;;;;2.20;0.57;;;11.80;70.50;;;;;;4084532;29;20052;-77
2024/02/04 14:27:28;;;;;;;0.98;0.40;;;11.80;70.40;;;;;;4084569;29;20044;-79
2024/02/04 14:29:30;;;;;;;1.73;0.68;;;11.80;70.50;;;;;;4084347;29;20134;-80
2024/02/04 14:31:32;;;;;;;1.70;0.60;;;11.90;70.50;;;;;;4085047;29;20055;-78
2024/02/04 14:33:33;;;;;;;1.33;0.55;;;11.90;70.00;;;;;;4085024;29;20062;-80
2024/02/04 14:35:35;;;;;;;1.55;0.60;;;12.10;70.00;;;;;;4086042;29;20074;-76
2024/02/04 14:37:39;;;;;;;1.35;0.45;;;12.10;69.30;;;;;;4087353;29;20505;-80
2024/02/04 14:39:41;;;;;;;1.48;0.60;;;12.00;69.70;;;;;;4095226;29;20051;-77
2024/02/04 14:41:43;;;;;;;1.85;0.52;;;11.90;69.90;;;;;;4086076;29;20054;-79
2024/02/04 14:43:46;;;;;;;0.60;0.35;;;11.80;70.00;;;;;;4091338;29;20060;-78
2024/02/04 14:45:48;;;;;;;2.17;0.60;;;11.60;70.60;;;;;;4084510;29;20833;-77
2024/02/04 14:47:50;;;;;;;1.02;0.43;;;11.70;71.10;;;;;;4084725;29;20116;-77
2024/02/04 14:49:51;;;;;;;1.33;0.55;;;11.60;71.40;;;;;;4084065;29;20047;-78
2024/02/04 14:51:53;;;;;;;0.63;0.30;;;11.60;71.50;;;;;;4084614;29;20458;-77
2024/02/04 14:53:55;;;;;;;1.48;0.40;;;11.50;71.50;;;;;;4084561;29;20612;-80
2024/02/04 14:55:56;;;;;;;1.58;0.50;;;11.40;72.40;;;;;;4084022;29;20546;-77
2024/02/04 14:57:58;;;;;;;1.08;0.45;;;11.30;72.50;;;;;;4084522;29;20477;-78
2024/02/04 15:00:01;;;;;;;1.38;0.57;;;11.30;72.50;;;;;;4084454;29;20114;-78
2024/02/04 15:02:04;;;;;;;1.50;0.57;;;11.20;72.60;;;;;;4083946;29;20052;-78
2024/02/04 15:04:07;;;;;;;2.42;0.60;;;11.30;72.70;;;;;;4084645;29;20094;-79
2024/02/04 15:06:08;;;;;;;1.10;0.40;;;11.20;72.60;;;;;;4083929;29;20446;-76
2024/02/04 15:08:10;;;;;;;0.98;0.43;;;11.30;72.90;;;;;;4083358;29;20055;-77
2024/02/04 15:10:12;;;;;;;0.85;0.40;;;11.30;72.80;;;;;;4084394;29;20056;-79
2024/02/04 15:12:14;;;;;;;1.50;0.43;;;11.20;73.20;;;;;;4081920;29;20156;-78
2024/02/04 15:14:17;;;;;;;0.77;0.40;;;11.20;74.20;;;;;;4083692;29;20102;-77
2024/02/04 15:16:22;;;;;;;1.27;0.50;;;11.20;73.40;;;;;;4084085;29;20083;-79
2024/02/04 15:18:25;;;;;;;1.10;0.43;;;11.10;73.40;;;;;;4083871;29;20083;-77
2024/02/04 15:20:26;;;;;;;1.40;0.57;;;11.10;73.40;;;;;;4084090;29;20056;-79
2024/02/04 15:22:30;;;;;;;1.65;0.40;;;11.10;73.70;;;;;;4084244;29;20062;-79
2024/02/04 15:24:31;;;;;;;0.68;0.28;;;11.00;73.80;;;;;;4084256;29;20158;-79
2024/02/04 15:26:36;;;;;;;2.05;0.43;;;11.00;73.80;;;;;;4084238;29;20054;-79
2024/02/04 15:28:39;;;;;;;1.38;0.45;;;11.00;74.00;;;;;;4083802;29;20048;-78
2024/02/04 15:30:42;;;;;;;3.97;0.60;;;11.00;74.30;;;;;;4083962;29;20091;-78
2024/02/04 15:32:46;;;;;;;0.77;0.38;;;10.90;74.20;;;;;;4083993;29;20572;-76
2024/02/04 15:34:49;;;;;;;0.80;0.40;;;10.90;74.30;;;;;;4085066;29;20047;-75
2024/02/04 15:36:52;;;;;;;1.15;0.30;;;10.90;74.80;;;;;;4084640;29;20134;-76
2024/02/04 15:38:52;;;;;;;1.55;0.50;;;10.90;74.60;;;;;;4084049;29;20088;-78
2024/02/04 15:40:54;;;;;;;1.38;0.50;;;10.80;74.70;;;;;;4084093;29;20055;-77
2024/02/04 15:42:56;;;;;;;0.95;0.40;;;10.80;74.80;;;;;;4083616;29;20044;-77
2024/02/04 15:44:58;;;;;;;2.13;0.70;;;10.80;75.00;;;;;;4083393;29;20051;-76
2024/02/04 15:46:59;;;;;;;2.17;0.85;;;10.80;75.00;;;;;;4083848;29;20102;-80
2024/02/04 15:49:09;;;;;;;3.80;1.58;;;10.80;74.80;;;;;;4083379;29;20570;-76
2024/02/04 15:51:12;;;;;;;1.73;0.60;;;10.90;74.80;;;;;;4083567;29;20469;-75
2024/02/04 15:53:16;;;;;;;1.75;0.60;;;10.80;74.70;;;;;;4072603;29;20056;-76
2024/02/04 15:55:19;;;;;;;1.85;0.70;;;10.80;74.70;;;;;;4067964;29;20059;-77
2024/02/04 15:57:26;;;;;;;0.80;0.40;;;10.80;74.90;;;;;;4073971;29;20138;-76
2024/02/04 15:59:34;;;;;;;1.80;0.55;;;10.80;74.90;;;;;;4083600;29;20060;-78
2024/02/04 16:01:37;;;;;;;1.52;0.60;;;10.80;74.70;;;;;;4083498;29;20060;-79
2024/02/04 16:03:40;;;;;;;2.20;0.70;;;10.80;74.70;;;;;;4083965;29;20071;-78
2024/02/04 16:05:44;;;;;;;1.25;0.60;;;10.80;74.90;;;;;;4079525;29;20067;-76
2024/02/04 16:07:47;;;;;;;2.38;0.60;;;10.80;74.90;;;;;;4071430;29;20648;-76
2024/02/04 16:09:49;;;;;;;2.42;0.70;;;10.90;74.40;;;;;;4079927;29;20083;-75
2024/02/04 16:11:58;;;;;;;1.42;0.63;;;10.90;74.40;;;;;;4082500;29;20075;-77
2024/02/04 16:14:03;;;;;;;2.30;0.73;;;10.80;74.70;;;;;;4084149;29;20351;-76
2024/02/04 16:16:09;;;;;;;1.75;0.65;;;10.70;75.20;;;;;;4084076;29;20058;-77
2024/02/04 16:18:12;;;;;;;1.88;0.80;;;10.70;75.60;;;;;;4084389;29;20058;-78
2024/02/04 16:20:16;;;;;;;2.25;0.70;;;10.70;75.70;;;;;;4083821;29;20180;-79
2024/02/04 16:22:20;;;;;;;2.10;0.60;;;10.70;75.90;;;;;;4084122;29;20056;-77
2024/02/04 16:24:21;;;;;;;1.83;0.60;;;10.60;76.00;;;;;;4083701;29;20074;-75
2024/02/04 16:26:23;;;;;;;2.03;0.70;;;10.50;76.40;;;;;;4083801;29;20091;-77
2024/02/04 16:28:25;;;;;;;1.58;0.70;;;10.50;76.80;;;;;;4084192;29;20052;-76
2024/02/04 16:30:27;;;;;;;2.00;0.60;;;10.50;76.80;;;;;;4083731;29;20055;-76
2024/02/04 16:32:29;;;;;;;2.13;0.77;;;10.30;77.20;;;;;;4083452;29;20055;-77
2024/02/04 16:34:34;;;;;;;2.50;0.93;;;10.30;77.40;;;;;;4075222;29;20044;-78
2024/02/04 16:36:36;;;;;;;2.30;0.80;;;10.30;78.10;;;;;;4082918;29;20043;-78
2024/02/04 16:38:39;;;;;;;1.73;0.60;;;10.30;77.30;;;;;;4084286;29;20303;-78
2024/02/04 16:40:42;;;;;;;2.72;0.95;;;10.30;77.50;;;;;;4082872;29;20056;-77
2024/02/04 16:42:44;;;;;;;3.30;1.02;;;10.30;77.80;;;;;;4082975;29;20390;-76
2024/02/04 16:44:51;;;;;;;1.70;0.70;;;10.20;77.70;;;;;;4083243;29;20490;-78